Time;durP1;ratioP1;P1;durP2;ratioP2;P2;SDS_P1;SDS_P2;PMS_P1;PMS_P2;Temp;Humidity;BMP_temperature;BMP_pressure;BME280_temperature;BME280_humidity;BME280_pressure;Samples;Min_cycle;Max_cycle;Signal;HPM_P1;HPM_P2
2023/01/16 00:02:00;;;;;;;2.97;0.80;;;;;;;;;;4932300;29;20454;-61
2023/01/16 00:04:27;;;;;;;1.17;0.70;;;;;;;;;;4934459;29;20561;-61
2023/01/16 00:06:54;;;;;;;2.43;0.80;;;;;;;;;;4934384;29;20822;-61
2023/01/16 00:09:20;;;;;;;1.47;0.57;;;;;;;;;;4934663;29;20602;-61
2023/01/16 00:12:05;;;;;;;0.57;0.40;;;;;;;;;;4934328;29;20516;-61
2023/01/16 00:14:31;;;;;;;2.20;1.00;;;;;;;;;;4934324;29;20222;-61
2023/01/16 00:17:16;;;;;;;1.87;0.60;;;;;;;;;;4934473;29;20426;-61
2023/01/16 00:19:42;;;;;;;2.60;0.50;;;;;;;;;;4934674;29;20509;-61
2023/01/16 00:22:09;;;;;;;1.60;0.60;;;;;;;;;;4934316;29;20518;-61
2023/01/16 00:24:35;;;;;;;1.63;0.60;;;;;;;;;;4934086;29;20438;-61
2023/01/16 00:27:02;;;;;;;2.50;0.70;;;;;;;;;;4933821;29;20957;-62
2023/01/16 00:29:29;;;;;;;1.10;0.50;;;;;;;;;;4934486;29;20438;-61
2023/01/16 00:31:55;;;;;;;1.23;0.60;;;;;;;;;;4934238;29;20436;-61
2023/01/16 00:34:23;;;;;;;2.27;0.63;;;;;;;;;;4933884;29;20529;-61
2023/01/16 00:36:49;;;;;;;1.60;0.67;;;;;;;;;;4933931;29;20438;-61
2023/01/16 00:39:16;;;;;;;1.57;0.80;;;;;;;;;;4934001;29;20439;-61
2023/01/16 00:41:43;;;;;;;2.00;0.97;;;;;;;;;;4933417;29;20482;-61
2023/01/16 00:44:09;;;;;;;1.70;0.53;;;;;;;;;;4917590;29;20426;-61
2023/01/16 00:46:36;;;;;;;0.90;0.30;;;;;;;;;;4933917;29;20521;-61
2023/01/16 00:49:02;;;;;;;1.20;0.70;;;;;;;;;;4933735;29;20550;-61
2023/01/16 00:51:29;;;;;;;1.87;0.63;;;;;;;;;;4933633;29;20423;-62
2023/01/16 00:53:56;;;;;;;2.00;1.00;;;;;;;;;;4933717;29;20477;-61
2023/01/16 00:56:22;;;;;;;1.30;0.50;;;;;;;;;;4933280;29;20419;-61
2023/01/16 00:59:07;;;;;;;1.27;0.80;;;;;;;;;;4933951;29;20450;-61
2023/01/16 01:01:33;;;;;;;0.83;0.20;;;;;;;;;;4933577;29;20427;-61
2023/01/16 01:04:17;;;;;;;1.53;0.80;;;;;;;;;;4934012;29;20457;-61
2023/01/16 01:06:44;;;;;;;4.00;1.07;;;;;;;;;;4933224;29;20430;-61
2023/01/16 01:09:11;;;;;;;0.63;0.40;;;;;;;;;;4933347;29;20525;-61
2023/01/16 01:11:37;;;;;;;2.10;0.67;;;;;;;;;;4916270;29;20547;-61
2023/01/16 01:14:04;;;;;;;1.17;0.70;;;;;;;;;;4933622;29;20490;-61
2023/01/16 01:16:31;;;;;;;2.10;0.53;;;;;;;;;;4933187;29;20482;-61
2023/01/16 01:18:58;;;;;;;2.00;0.57;;;;;;;;;;4933194;29;20442;-60
2023/01/16 01:21:24;;;;;;;4.40;0.97;;;;;;;;;;4933037;29;20873;-62
2023/01/16 01:23:51;;;;;;;2.07;1.00;;;;;;;;;;4933275;29;20438;-61
2023/01/16 01:26:17;;;;;;;4.40;0.97;;;;;;;;;;4933003;29;20431;-61
2023/01/16 01:28:44;;;;;;;2.90;0.90;;;;;;;;;;4933150;29;20459;-61
2023/01/16 01:31:28;;;;;;;2.10;0.60;;;;;;;;;;4932879;29;20422;-61
2023/01/16 01:33:55;;;;;;;0.30;0.23;;;;;;;;;;4932855;29;21005;-61
2023/01/16 01:36:21;;;;;;;1.67;0.50;;;;;;;;;;4933396;29;20798;-61
2023/01/16 01:38:50;;;;;;;2.13;0.63;;;;;;;;;;4933032;29;20485;-61
2023/01/16 01:41:16;;;;;;;3.90;0.60;;;;;;;;;;4932682;29;20513;-61
2023/01/16 02:21:28;;;;;;;1.10;0.57;;;;;;;;;;4919702;29;20443;-61
2023/01/16 02:24:01;;;;;;;1.17;0.50;;;;;;;;;;4919833;29;20439;-61
2023/01/16 02:26:36;;;;;;;5.03;1.10;;;;;;;;;;4919453;29;20518;-61
2023/01/16 02:29:15;;;;;;;1.27;0.50;;;;;;;;;;4915435;29;20475;-61
2023/01/16 02:31:44;;;;;;;2.57;0.67;;;;;;;;;;4901091;29;20451;-60
2023/01/16 02:34:29;;;;;;;1.87;0.57;;;;;;;;;;4900855;29;20478;-61
2023/01/16 02:37:14;;;;;;;1.23;0.70;;;;;;;;;;4900797;29;20451;-61
2023/01/16 02:40:21;;;;;;;1.47;0.57;;;;;;;;;;4900865;29;20424;-61
2023/01/16 02:43:14;;;;;;;1.20;0.67;;;;;;;;;;4890848;29;20459;-61
2023/01/16 02:45:49;;;;;;;3.77;0.83;;;;;;;;;;4913340;29;21051;-61
2023/01/16 02:48:20;;;;;;;1.60;0.93;;;;;;;;;;4899538;29;20447;-61
2023/01/16 02:51:06;;;;;;;2.40;0.77;;;;;;;;;;4915073;29;20444;-61
2023/01/16 02:53:39;;;;;;;2.20;0.60;;;;;;;;;;4900874;29;20483;-61
2023/01/16 02:56:08;;;;;;;0.70;0.50;;;;;;;;;;4900900;29;20444;-61
2023/01/16 02:58:39;;;;;;;2.43;0.80;;;;;;;;;;4914765;29;20440;-60
2023/01/16 03:01:06;;;;;;;4.50;0.97;;;;;;;;;;4924689;29;20436;-60
2023/01/16 03:03:36;;;;;;;3.73;0.90;;;;;;;;;;4919437;29;20478;-60
2023/01/16 03:06:16;;;;;;;2.73;0.90;;;;;;;;;;4919330;29;20931;-61
2023/01/16 03:08:46;;;;;;;2.23;0.73;;;;;;;;;;4918114;29;20439;-61
2023/01/16 03:11:14;;;;;;;2.27;0.80;;;;;;;;;;4919317;29;20565;-62
2023/01/16 03:13:53;;;;;;;3.43;1.10;;;;;;;;;;4919411;29;20477;-62
2023/01/16 03:16:38;;;;;;;1.23;0.50;;;;;;;;;;4919741;29;20419;-61
2023/01/16 03:19:11;;;;;;;3.33;0.60;;;;;;;;;;4919560;29;20441;-61
2023/01/16 03:21:57;;;;;;;1.13;0.50;;;;;;;;;;4919368;29;20903;-61
2023/01/16 03:24:30;;;;;;;3.00;0.70;;;;;;;;;;4919186;29;20545;-61
2023/01/16 03:27:06;;;;;;;0.97;0.67;;;;;;;;;;4919160;29;20435;-61
2023/01/16 03:29:40;;;;;;;2.30;0.90;;;;;;;;;;4921501;29;20525;-61
2023/01/16 03:32:26;;;;;;;1.10;0.67;;;;;;;;;;4920875;29;20550;-61
2023/01/16 03:34:57;;;;;;;3.17;0.93;;;;;;;;;;4935307;29;20534;-61
2023/01/16 03:37:44;;;;;;;7.40;3.13;;;;;;;;;;4935260;29;20550;-61
2023/01/16 03:40:11;;;;;;;3.67;1.07;;;;;;;;;;4918456;29;20431;-62
2023/01/16 03:42:43;;;;;;;2.53;0.57;;;;;;;;;;4934971;29;20946;-61
2023/01/16 03:45:30;;;;;;;3.10;1.10;;;;;;;;;;4918122;29;20445;-61
2023/01/16 03:48:02;;;;;;;3.27;1.40;;;;;;;;;;4924863;29;20452;-61
2023/01/16 03:50:29;;;;;;;2.40;1.10;;;;;;;;;;4935064;29;20435;-61
2023/01/16 03:52:57;;;;;;;2.33;1.00;;;;;;;;;;4918233;29;20438;-61
2023/01/16 03:55:26;;;;;;;0.90;0.80;;;;;;;;;;4934547;29;20474;-61
2023/01/16 03:57:54;;;;;;;2.73;1.00;;;;;;;;;;4934523;29;20843;-61
2023/01/16 04:00:21;;;;;;;3.13;1.33;;;;;;;;;;4934656;29;20451;-61
2023/01/16 04:02:48;;;;;;;2.33;0.70;;;;;;;;;;4934829;29;20907;-61
2023/01/16 04:05:17;;;;;;;2.33;1.00;;;;;;;;;;4917844;29;20457;-61
2023/01/16 04:08:02;;;;;;;2.07;0.97;;;;;;;;;;4934779;29;20427;-61
2023/01/16 04:10:30;;;;;;;2.33;0.70;;;;;;;;;;4934521;29;20973;-61
2023/01/16 04:12:58;;;;;;;2.90;0.90;;;;;;;;;;4934289;29;20438;-61
2023/01/16 04:15:24;;;;;;;1.13;0.80;;;;;;;;;;4934312;29;20573;-61
2023/01/16 04:17:51;;;;;;;2.70;0.50;;;;;;;;;;4917575;29;20419;-61
2023/01/16 04:20:19;;;;;;;3.50;1.20;;;;;;;;;;4934322;29;20449;-61
2023/01/16 04:22:49;;;;;;;2.13;0.90;;;;;;;;;;4934733;29;21008;-61
2023/01/16 04:25:16;;;;;;;2.33;0.73;;;;;;;;;;4934475;29;20435;-61
2023/01/16 04:27:42;;;;;;;5.20;1.10;;;;;;;;;;4901226;29;20482;-61
2023/01/16 04:30:09;;;;;;;2.57;1.10;;;;;;;;;;4934402;29;20458;-61
2023/01/16 04:32:36;;;;;;;2.87;1.00;;;;;;;;;;4934443;29;20458;-61
2023/01/16 04:35:03;;;;;;;3.27;1.07;;;;;;;;;;4934201;29;21032;-61
2023/01/16 04:37:29;;;;;;;4.37;1.10;;;;;;;;;;4934129;29;20430;-61
2023/01/16 04:39:58;;;;;;;4.83;1.17;;;;;;;;;;4934067;29;20467;-61
2023/01/16 04:42:25;;;;;;;2.70;1.07;;;;;;;;;;4933145;29;20504;-61
2023/01/16 04:44:51;;;;;;;1.60;0.70;;;;;;;;;;4934126;29;20453;-61
2023/01/16 04:47:18;;;;;;;1.90;0.83;;;;;;;;;;4934071;29;20439;-61
2023/01/16 04:49:45;;;;;;;1.50;0.80;;;;;;;;;;4916961;29;20451;-61
2023/01/16 04:52:11;;;;;;;3.73;1.10;;;;;;;;;;4933815;29;20942;-61
2023/01/16 04:54:56;;;;;;;1.17;0.80;;;;;;;;;;4933691;29;20779;-62
2023/01/16 04:57:22;;;;;;;2.57;1.00;;;;;;;;;;4933561;29;20787;-61
2023/01/16 04:59:49;;;;;;;1.63;0.70;;;;;;;;;;4933663;29;20462;-61
2023/01/16 05:02:15;;;;;;;2.53;0.83;;;;;;;;;;4933562;29;20993;-61
2023/01/16 05:04:42;;;;;;;3.13;1.10;;;;;;;;;;4933546;29;20456;-61
2023/01/16 05:07:09;;;;;;;2.90;1.00;;;;;;;;;;4933500;29;20858;-61
2023/01/16 05:09:36;;;;;;;2.83;1.03;;;;;;;;;;4933482;29;20435;-61
2023/01/16 05:12:02;;;;;;;3.47;1.20;;;;;;;;;;4933120;29;21068;-61
2023/01/16 05:14:29;;;;;;;2.23;0.70;;;;;;;;;;4933215;29;20478;-61
2023/01/16 05:16:55;;;;;;;3.57;0.90;;;;;;;;;;4933540;29;20509;-61
2023/01/16 05:19:22;;;;;;;4.00;1.07;;;;;;;;;;4933269;29;20443;-61
2023/01/16 05:22:06;;;;;;;2.97;1.00;;;;;;;;;;4933248;29;20425;-61
2023/01/16 05:24:32;;;;;;;1.40;1.17;;;;;;;;;;4933218;29;20427;-61
2023/01/16 05:26:59;;;;;;;2.23;1.07;;;;;;;;;;4932862;29;20441;-61
2023/01/16 05:29:26;;;;;;;3.63;1.10;;;;;;;;;;4933030;29;20426;-61
2023/01/16 05:31:52;;;;;;;3.57;1.20;;;;;;;;;;4933203;29;20448;-61
2023/01/16 05:34:36;;;;;;;3.13;1.40;;;;;;;;;;4933067;29;20472;-61
2023/01/16 05:37:03;;;;;;;4.20;1.00;;;;;;;;;;4932867;29;20496;-61
2023/01/16 05:39:47;;;;;;;3.27;1.23;;;;;;;;;;4933087;29;20438;-62
2023/01/16 05:42:24;;;;;;;1.20;0.90;;;;;;;;;;4932821;29;20458;-61
2023/01/16 05:44:51;;;;;;;3.20;1.27;;;;;;;;;;4932743;29;20438;-61
2023/01/16 05:47:18;;;;;;;1.97;1.20;;;;;;;;;;4932888;29;20943;-61
2023/01/16 05:49:45;;;;;;;3.20;1.50;;;;;;;;;;4932984;29;20435;-61
2023/01/16 05:52:12;;;;;;;3.23;1.27;;;;;;;;;;4932861;29;20839;-61
2023/01/16 05:54:38;;;;;;;2.57;1.10;;;;;;;;;;4931684;29;20479;-61
2023/01/16 05:57:05;;;;;;;1.97;1.10;;;;;;;;;;4932546;29;20484;-61
2023/01/16 05:59:49;;;;;;;4.63;1.33;;;;;;;;;;4932519;29;20532;-61
2023/01/16 06:02:16;;;;;;;0.40;0.40;;;;;;;;;;4932551;29;20427;-61
2023/01/16 06:05:01;;;;;;;3.10;1.27;;;;;;;;;;4932496;29;20787;-61
2023/01/16 06:07:27;;;;;;;1.83;0.90;;;;;;;;;;4915877;29;20475;-61
2023/01/16 06:09:54;;;;;;;3.63;1.30;;;;;;;;;;4932471;29;20431;-61
2023/01/16 06:12:20;;;;;;;3.03;1.60;;;;;;;;;;4932231;29;20489;-61
2023/01/16 06:14:47;;;;;;;3.83;1.60;;;;;;;;;;4915382;29;20593;-62
2023/01/16 06:17:15;;;;;;;3.13;1.60;;;;;;;;;;4932571;29;20553;-61
2023/01/16 06:19:42;;;;;;;2.07;1.20;;;;;;;;;;4932580;29;20490;-62
2023/01/16 06:22:09;;;;;;;2.83;1.20;;;;;;;;;;4932541;29;20505;-61
2023/01/16 06:24:53;;;;;;;6.20;1.30;;;;;;;;;;4932292;29;20506;-62
2023/01/16 06:27:20;;;;;;;2.53;0.77;;;;;;;;;;4915230;29;20435;-62
2023/01/16 06:29:46;;;;;;;3.00;1.40;;;;;;;;;;4932634;29;20814;-62
2023/01/16 06:32:13;;;;;;;5.67;1.57;;;;;;;;;;4932330;29;20475;-61
2023/01/16 06:34:39;;;;;;;3.03;1.37;;;;;;;;;;4932566;29;21264;-62
2023/01/16 06:37:06;;;;;;;5.60;1.30;;;;;;;;;;4932412;29;20483;-62
2023/01/16 06:39:33;;;;;;;5.27;1.70;;;;;;;;;;4915467;29;20475;-61
2023/01/16 06:42:00;;;;;;;3.80;1.53;;;;;;;;;;4932045;29;20443;-62
2023/01/16 06:44:44;;;;;;;6.67;1.60;;;;;;;;;;4932079;29;20908;-62
2023/01/16 06:47:11;;;;;;;5.40;1.60;;;;;;;;;;4932793;29;20448;-61
2023/01/16 06:49:38;;;;;;;3.60;1.70;;;;;;;;;;4932542;29;20502;-62
2023/01/16 06:52:04;;;;;;;8.50;2.03;;;;;;;;;;4932404;29;20462;-62
2023/01/16 06:54:31;;;;;;;4.03;1.87;;;;;;;;;;4932059;29;20471;-61
2023/01/16 06:56:58;;;;;;;4.30;1.90;;;;;;;;;;4931998;29;20425;-62
2023/01/16 06:59:24;;;;;;;4.73;1.73;;;;;;;;;;4915238;29;20436;-62
2023/01/16 07:01:51;;;;;;;3.07;1.30;;;;;;;;;;4932230;29;20990;-62
2023/01/16 07:04:35;;;;;;;3.37;1.23;;;;;;;;;;4932027;29;20802;-61
2023/01/16 07:07:02;;;;;;;2.43;1.37;;;;;;;;;;4934998;29;20950;-61
2023/01/16 07:09:46;;;;;;;3.13;1.43;;;;;;;;;;4935591;29;20436;-62
2023/01/16 07:12:13;;;;;;;5.33;1.80;;;;;;;;;;4918466;29;20969;-61
2023/01/16 07:22:55;;;;;;;5.70;1.20;;;;;;;;;;4935788;29;20450;-61
2023/01/16 07:25:23;;;;;;;2.57;1.07;;;;;;;;;;4918422;29;20431;-61
2023/01/16 07:27:50;;;;;;;1.30;0.93;;;;;;;;;;4935116;29;20477;-61
2023/01/16 07:30:17;;;;;;;4.77;1.80;;;;;;;;;;4935146;29;20470;-61
2023/01/16 07:33:02;;;;;;;5.23;1.63;;;;;;;;;;4920939;29;20498;-61
2023/01/16 07:35:28;;;;;;;3.03;1.27;;;;;;;;;;4935050;29;20474;-61
2023/01/16 07:38:13;;;;;;;4.43;1.70;;;;;;;;;;4935370;29;20453;-61
2023/01/16 07:40:39;;;;;;;4.53;1.67;;;;;;;;;;4935269;29;20438;-62
2023/01/16 07:43:06;;;;;;;4.70;1.70;;;;;;;;;;4935141;29;20497;-61
2023/01/16 07:45:33;;;;;;;5.30;2.00;;;;;;;;;;4933885;29;20442;-61
2023/01/16 07:48:00;;;;;;;2.93;1.80;;;;;;;;;;4935217;29;21232;-61
2023/01/16 07:50:48;;;;;;;3.90;2.00;;;;;;;;;;4935208;29;20423;-61
2023/01/16 07:53:15;;;;;;;4.07;2.43;;;;;;;;;;4935165;29;20437;-61
2023/01/16 07:56:00;;;;;;;5.37;2.40;;;;;;;;;;4934992;29;20474;-61
2023/01/16 07:58:29;;;;;;;4.93;2.67;;;;;;;;;;4935019;29;20470;-61
2023/01/16 08:00:56;;;;;;;6.60;2.40;;;;;;;;;;4934601;29;20431;-61
2023/01/16 08:03:23;;;;;;;7.50;2.87;;;;;;;;;;4934699;29;20443;-61
2023/01/16 08:05:54;;;;;;;4.47;1.73;;;;;;;;;;4917583;29;20434;-62
2023/01/16 08:08:20;;;;;;;9.70;2.87;;;;;;;;;;4934735;29;20442;-61
2023/01/16 08:10:47;;;;;;;6.50;2.10;;;;;;;;;;4934941;29;20442;-61
2023/01/16 08:13:13;;;;;;;8.27;2.70;;;;;;;;;;4934557;29;20942;-61
2023/01/16 08:15:40;;;;;;;9.63;2.27;;;;;;;;;;4934345;29;20474;-61
2023/01/16 08:18:07;;;;;;;6.10;2.47;;;;;;;;;;4933664;29;20793;-64
2023/01/16 08:20:33;;;;;;;5.73;2.27;;;;;;;;;;4934490;29;20434;-61
2023/01/16 08:23:01;;;;;;;5.47;2.87;;;;;;;;;;4917677;29;20466;-62
2023/01/16 08:25:27;;;;;;;4.57;2.03;;;;;;;;;;4934469;29;20442;-62
2023/01/16 08:27:54;;;;;;;6.90;2.77;;;;;;;;;;4933833;29;20485;-61
2023/01/16 08:30:38;;;;;;;8.27;2.73;;;;;;;;;;4934052;29;20942;-61
2023/01/16 08:33:05;;;;;;;6.20;2.20;;;;;;;;;;4934337;29;20431;-61
2023/01/16 08:35:32;;;;;;;2.40;1.50;;;;;;;;;;4934062;29;20485;-61
2023/01/16 08:37:58;;;;;;;8.23;2.90;;;;;;;;;;4934461;29;20439;-61
2023/01/16 08:40:25;;;;;;;6.13;2.60;;;;;;;;;;4934127;29;20435;-62
2023/01/16 08:51:24;;;;;;;5.97;2.20;;;;;;;;;;4933800;29;21002;-61
2023/01/16 08:53:52;;;;;;;6.27;2.37;;;;;;;;;;4933749;29;20490;-61
2023/01/16 08:56:19;;;;;;;3.83;1.70;;;;;;;;;;4933582;29;20508;-61
2023/01/16 08:58:46;;;;;;;5.57;2.13;;;;;;;;;;4933876;29;20191;-61
2023/01/16 09:01:13;;;;;;;4.67;1.80;;;;;;;;;;4933502;29;20202;-61
2023/01/16 09:03:39;;;;;;;6.40;2.23;;;;;;;;;;4916593;29;20198;-61
2023/01/16 09:06:06;;;;;;;6.40;3.17;;;;;;;;;;4933474;29;20607;-62
2023/01/16 09:08:50;;;;;;;5.97;2.10;;;;;;;;;;4933391;29;20425;-61
2023/01/16 09:14:02;;;;;;;5.53;2.93;;;;;;;;;;4933729;29;20427;-61
2023/01/16 09:16:36;;;;;;;5.03;2.83;;;;;;;;;;4933105;29;21029;-61
2023/01/16 09:19:03;;;;;;;8.63;3.30;;;;;;;;;;4933358;29;20297;-61
2023/01/16 09:21:30;;;;;;;11.90;3.20;;;;;;;;;;4933424;29;20289;-61
2023/01/16 09:23:56;;;;;;;7.37;3.60;;;;;;;;;;4933347;29;20195;-61
2023/01/16 09:26:41;;;;;;;4.20;2.20;;;;;;;;;;4932851;29;20650;-61
2023/01/16 09:29:07;;;;;;;3.20;1.80;;;;;;;;;;4933099;29;20273;-61
2023/01/16 09:31:34;;;;;;;4.73;2.13;;;;;;;;;;4933090;29;20229;-61
2023/01/16 09:34:02;;;;;;;5.20;2.40;;;;;;;;;;4932968;29;20194;-61
2023/01/16 09:36:29;;;;;;;8.87;3.90;;;;;;;;;;4932970;29;20595;-61
2023/01/16 09:39:13;;;;;;;7.70;2.70;;;;;;;;;;4933051;29;20426;-61
2023/01/16 09:44:49;;;;;;;5.90;3.37;;;;;;;;;;4905924;29;20505;-61
2023/01/16 09:47:16;;;;;;;8.17;3.37;;;;;;;;;;4916052;29;20505;-62
2023/01/16 09:49:43;;;;;;;5.63;3.60;;;;;;;;;;4933056;29;21031;-61
2023/01/16 10:00:45;;;;;;;8.70;3.80;;;;;;;;;;4932648;29;20533;-61
2023/01/16 10:03:12;;;;;;;7.33;3.30;;;;;;;;;;4932669;29;20423;-61
2023/01/16 10:05:49;;;;;;;5.07;2.97;;;;;;;;;;4932846;29;20443;-61
2023/01/16 10:08:43;;;;;;;4.97;3.03;;;;;;;;;;4918416;29;20514;-61
2023/01/16 10:11:13;;;;;;;4.47;2.37;;;;;;;;;;4932706;29;21135;-61
2023/01/16 10:13:40;;;;;;;8.03;3.27;;;;;;;;;;4932858;29;20423;-61
2023/01/16 10:16:14;;;;;;;7.70;3.50;;;;;;;;;;4932548;29;20913;-61
2023/01/16 10:19:15;;;;;;;5.40;2.47;;;;;;;;;;4918235;29;20991;-62
2023/01/16 10:21:51;;;;;;;8.57;3.80;;;;;;;;;;4915536;29;20814;-61
2023/01/16 10:24:27;;;;;;;7.23;2.53;;;;;;;;;;4932119;29;20447;-61
2023/01/16 10:26:54;;;;;;;6.83;3.17;;;;;;;;;;4932236;29;20426;-61
2023/01/16 10:29:39;;;;;;;3.63;1.70;;;;;;;;;;4932376;29;20442;-61
2023/01/16 10:32:14;;;;;;;6.63;4.00;;;;;;;;;;4915787;29;20461;-61
2023/01/16 10:34:51;;;;;;;3.93;1.97;;;;;;;;;;4915719;29;20438;-61
2023/01/16 10:37:18;;;;;;;5.93;3.47;;;;;;;;;;4932292;29;20470;-61
2023/01/16 10:39:45;;;;;;;5.40;3.10;;;;;;;;;;4932406;29;20434;-62
2023/01/16 10:50:52;;;;;;;6.00;2.93;;;;;;;;;;4936112;29;20178;-61
2023/01/16 10:53:19;;;;;;;4.67;2.60;;;;;;;;;;4936175;29;20965;-61
2023/01/16 10:55:46;;;;;;;5.20;3.00;;;;;;;;;;4936286;29;20318;-61
2023/01/16 10:58:29;;;;;;;5.53;2.60;;;;;;;;;;4935971;29;20208;-61
2023/01/16 11:01:20;;;;;;;6.57;2.87;;;;;;;;;;4921390;29;20208;-61
2023/01/16 11:03:47;;;;;;;4.53;2.80;;;;;;;;;;4934516;29;20670;-62
2023/01/16 11:06:15;;;;;;;5.43;2.93;;;;;;;;;;4935854;29;20194;-61
2023/01/16 11:08:42;;;;;;;5.47;2.53;;;;;;;;;;4918752;29;20187;-61
2023/01/16 11:20:07;;;;;;;6.60;2.30;;;;;;;;;;4918897;29;20203;-62
2023/01/16 11:22:35;;;;;;;7.47;2.53;;;;;;;;;;4918559;29;20175;-61
2023/01/16 11:25:04;;;;;;;4.67;2.70;;;;;;;;;;4902889;29;20233;-63
2023/01/16 11:27:31;;;;;;;5.90;2.80;;;;;;;;;;4935038;29;20227;-61
2023/01/16 11:29:58;;;;;;;7.17;2.70;;;;;;;;;;4918562;29;20194;-61
2023/01/16 11:32:28;;;;;;;5.23;2.80;;;;;;;;;;4918177;29;20207;-61
2023/01/16 11:34:55;;;;;;;6.77;2.90;;;;;;;;;;4918924;29;20186;-61
2023/01/16 11:37:22;;;;;;;7.17;2.90;;;;;;;;;;4935021;29;20290;-61
2023/01/16 11:39:49;;;;;;;6.30;3.07;;;;;;;;;;4935244;29;20438;-61
2023/01/16 11:48:22;;;;;;;5.53;2.83;;;;;;;;;;4920679;29;20742;-61
2023/01/16 11:50:54;;;;;;;4.80;3.23;;;;;;;;;;4920519;29;20443;-61
2023/01/16 11:53:39;;;;;;;6.47;3.17;;;;;;;;;;4933973;29;20198;-61
2023/01/16 11:56:17;;;;;;;5.63;3.50;;;;;;;;;;4934922;29;20482;-61
2023/01/16 11:58:46;;;;;;;5.03;3.03;;;;;;;;;;4935098;29;20534;-61
2023/01/16 12:01:13;;;;;;;9.13;3.50;;;;;;;;;;4917606;29;20468;-61
2023/01/16 12:03:49;;;;;;;7.53;3.70;;;;;;;;;;4917460;29;20446;-61
2023/01/16 12:06:18;;;;;;;6.60;3.50;;;;;;;;;;4934829;29;20198;-61
2023/01/16 12:08:45;;;;;;;7.83;4.00;;;;;;;;;;4934585;29;20430;-61
2023/01/16 12:11:27;;;;;;;6.10;3.93;;;;;;;;;;4934794;29;20850;-61
2023/01/16 12:14:18;;;;;;;10.97;4.30;;;;;;;;;;4934605;29;20851;-61
2023/01/16 12:16:47;;;;;;;6.97;4.47;;;;;;;;;;4935049;29;20478;-61
2023/01/16 12:19:33;;;;;;;9.17;4.90;;;;;;;;;;4934334;29;20225;-61
2023/01/16 12:22:02;;;;;;;8.17;4.70;;;;;;;;;;4934345;29;20739;-62
2023/01/16 12:24:59;;;;;;;11.17;5.50;;;;;;;;;;4934355;29;20426;-61
2023/01/16 12:27:38;;;;;;;10.43;5.50;;;;;;;;;;4925639;29;20479;-61
2023/01/16 12:30:16;;;;;;;14.60;7.50;;;;;;;;;;4934309;29;21064;-61
2023/01/16 12:32:50;;;;;;;13.33;6.83;;;;;;;;;;4933978;29;20197;-61
2023/01/16 12:35:26;;;;;;;10.83;6.40;;;;;;;;;;4917385;29;20442;-61
2023/01/16 12:37:53;;;;;;;10.43;6.70;;;;;;;;;;4917518;29;20438;-62
2023/01/16 12:40:23;;;;;;;12.13;6.50;;;;;;;;;;4934349;29;20423;-61
2023/01/16 12:43:22;;;;;;;11.40;7.00;;;;;;;;;;4933842;29;20194;-61
2023/01/16 12:45:52;;;;;;;10.93;6.13;;;;;;;;;;4933853;29;20457;-61
2023/01/16 12:48:27;;;;;;;10.30;6.03;;;;;;;;;;4933850;29;20442;-61
2023/01/16 12:51:29;;;;;;;10.03;5.70;;;;;;;;;;4933881;29;20187;-61
2023/01/16 12:53:56;;;;;;;11.40;5.57;;;;;;;;;;4933729;29;20510;-61
2023/01/16 12:56:42;;;;;;;10.63;4.77;;;;;;;;;;4933586;29;20477;-61
2023/01/16 12:59:11;;;;;;;9.20;4.90;;;;;;;;;;4933895;29;20493;-61
2023/01/16 13:01:57;;;;;;;9.63;5.03;;;;;;;;;;4919462;29;20787;-61
2023/01/16 13:04:26;;;;;;;7.37;3.80;;;;;;;;;;4916464;29;20423;-61
2023/01/16 13:06:53;;;;;;;15.40;6.50;;;;;;;;;;4933893;29;20830;-61
2023/01/16 13:09:38;;;;;;;10.37;6.20;;;;;;;;;;4916590;29;20415;-61
2023/01/16 13:15:09;;;;;;;7.00;3.73;;;;;;;;;;4933211;29;20434;-61
2023/01/16 13:17:46;;;;;;;8.50;4.37;;;;;;;;;;4933536;29;20489;-61
2023/01/16 13:20:13;;;;;;;9.70;3.83;;;;;;;;;;4933538;29;20441;-61
2023/01/16 13:23:05;;;;;;;8.57;4.33;;;;;;;;;;4919153;29;20434;-61
2023/01/16 13:25:36;;;;;;;12.37;5.37;;;;;;;;;;4916574;29;20426;-62
2023/01/16 13:28:19;;;;;;;14.27;5.90;;;;;;;;;;4932846;29;20314;-62
2023/01/16 13:30:45;;;;;;;10.30;4.33;;;;;;;;;;4933482;29;20533;-62
2023/01/16 13:33:13;;;;;;;15.90;6.73;;;;;;;;;;4916569;29;20419;-62
2023/01/16 13:36:01;;;;;;;12.20;5.50;;;;;;;;;;4932851;29;20203;-61
2023/01/16 13:38:36;;;;;;;19.80;6.93;;;;;;;;;;4933186;29;20191;-61
2023/01/16 13:41:10;;;;;;;22.27;9.13;;;;;;;;;;4916408;29;20761;-62
2023/01/16 13:46:41;;;;;;;16.77;7.43;;;;;;;;;;4933155;29;20435;-61
2023/01/16 13:49:12;;;;;;;14.07;6.87;;;;;;;;;;4916151;29;20820;-62
2023/01/16 13:51:42;;;;;;;11.43;5.50;;;;;;;;;;4915873;29;20249;-62
2023/01/16 13:54:12;;;;;;;13.03;5.37;;;;;;;;;;4915976;29;20234;-62
2023/01/16 13:56:40;;;;;;;13.70;5.33;;;;;;;;;;4932699;29;20222;-61
2023/01/16 13:59:08;;;;;;;9.97;5.30;;;;;;;;;;4932992;29;20525;-62
2023/01/16 14:01:44;;;;;;;9.77;4.93;;;;;;;;;;4915488;29;20205;-61
2023/01/16 14:04:16;;;;;;;11.60;5.73;;;;;;;;;;4932696;29;20473;-62
2023/01/16 14:10:05;;;;;;;21.73;10.97;;;;;;;;;;4932507;29;20595;-62
2023/01/16 14:12:42;;;;;;;13.50;6.90;;;;;;;;;;4932601;29;20195;-62
2023/01/16 14:17:59;;;;;;;11.07;6.20;;;;;;;;;;4932551;29;20435;-61
2023/01/16 14:20:37;;;;;;;12.30;7.80;;;;;;;;;;4932446;29;20203;-61
2023/01/16 14:25:55;;;;;;;13.20;5.43;;;;;;;;;;4932746;29;20529;-61
2023/01/16 14:28:22;;;;;;;7.43;3.97;;;;;;;;;;4915372;29;20485;-61
2023/01/16 14:30:49;;;;;;;9.17;4.23;;;;;;;;;;4915383;29;20445;-61
2023/01/16 14:33:16;;;;;;;9.57;4.00;;;;;;;;;;4932235;29;20533;-62
2023/01/16 14:36:01;;;;;;;7.47;4.43;;;;;;;;;;4917898;29;20558;-61
2023/01/16 14:38:30;;;;;;;7.67;4.20;;;;;;;;;;4915698;29;20246;-61
2023/01/16 14:56:04;;;;;;;9.20;5.10;;;;;;;;;;4932163;29;20462;-62
2023/01/16 14:58:44;;;;;;;12.23;5.60;;;;;;;;;;4932344;29;20575;-62
2023/01/16 15:04:02;;;;;;;12.53;6.33;;;;;;;;;;4921345;29;20450;-62
2023/01/16 15:06:37;;;;;;;16.17;6.90;;;;;;;;;;4931913;29;20938;-62
2023/01/16 15:09:03;;;;;;;12.50;7.00;;;;;;;;;;4919253;29;20434;-62
2023/01/16 15:11:31;;;;;;;12.43;6.93;;;;;;;;;;4915579;29;20449;-61
2023/01/16 15:22:54;;;;;;;12.27;6.90;;;;;;;;;;4888206;29;20435;-61
2023/01/16 15:25:24;;;;;;;14.63;7.97;;;;;;;;;;4932291;29;20438;-62
2023/01/16 15:27:53;;;;;;;15.33;7.50;;;;;;;;;;4917818;29;20476;-62
2023/01/16 15:30:20;;;;;;;18.00;8.63;;;;;;;;;;4935536;29;20470;-61
2023/01/16 15:32:54;;;;;;;11.63;7.13;;;;;;;;;;4918311;29;20453;-62
2023/01/16 15:35:22;;;;;;;11.50;6.73;;;;;;;;;;4935476;29;20459;-61
2023/01/16 15:37:50;;;;;;;15.33;8.57;;;;;;;;;;4934537;29;20478;-63
2023/01/16 15:40:21;;;;;;;12.33;7.30;;;;;;;;;;4936188;29;20448;-61
2023/01/16 15:48:48;;;;;;;11.37;7.13;;;;;;;;;;4934539;29;20473;-61
2023/01/16 15:51:29;;;;;;;13.77;7.77;;;;;;;;;;4935564;29;20477;-62
2023/01/16 15:53:59;;;;;;;15.33;7.73;;;;;;;;;;4935781;29;20473;-62
2023/01/16 15:56:26;;;;;;;14.37;8.47;;;;;;;;;;4935830;29;21052;-62
2023/01/16 15:58:53;;;;;;;17.97;8.90;;;;;;;;;;4935181;29;20467;-62
2023/01/16 16:01:31;;;;;;;17.80;7.90;;;;;;;;;;4935109;29;20477;-62
2023/01/16 16:04:01;;;;;;;17.60;9.20;;;;;;;;;;4935826;29;20451;-62
2023/01/16 16:06:45;;;;;;;17.63;8.13;;;;;;;;;;4935313;29;20427;-62
2023/01/16 16:09:14;;;;;;;16.50;8.73;;;;;;;;;;4934360;29;20430;-62
2023/01/16 16:11:54;;;;;;;16.37;8.57;;;;;;;;;;4933929;29;20961;-62
2023/01/16 16:20:27;;;;;;;14.83;8.33;;;;;;;;;;4934706;29;20527;-61
2023/01/16 16:22:56;;;;;;;15.70;8.07;;;;;;;;;;4934897;29;20466;-62
2023/01/16 16:25:26;;;;;;;15.57;8.77;;;;;;;;;;4933407;29;20453;-62
2023/01/16 16:27:53;;;;;;;14.50;8.47;;;;;;;;;;4935028;29;20565;-62
2023/01/16 16:30:27;;;;;;;13.67;8.10;;;;;;;;;;4935084;29;20474;-61
2023/01/16 16:32:53;;;;;;;14.67;8.17;;;;;;;;;;4934554;29;20445;-62
2023/01/16 16:35:23;;;;;;;14.80;8.43;;;;;;;;;;4934319;29;20946;-62
2023/01/16 16:37:50;;;;;;;14.80;8.20;;;;;;;;;;4933808;29;20489;-62
2023/01/16 16:40:17;;;;;;;12.93;8.07;;;;;;;;;;4934672;29;20436;-62
2023/01/16 16:43:01;;;;;;;15.57;9.20;;;;;;;;;;4935180;29;20509;-61
2023/01/16 16:45:34;;;;;;;15.67;8.93;;;;;;;;;;4934770;29;20435;-62
2023/01/16 16:48:23;;;;;;;15.67;8.57;;;;;;;;;;4934717;29;20474;-62
2023/01/16 16:50:51;;;;;;;14.40;8.10;;;;;;;;;;4934034;29;20977;-62
2023/01/16 16:53:21;;;;;;;18.03;9.17;;;;;;;;;;4934465;29;20468;-62
2023/01/16 16:55:50;;;;;;;18.00;9.10;;;;;;;;;;4934921;29;20446;-61
2023/01/16 16:58:18;;;;;;;15.00;8.07;;;;;;;;;;4933404;29;20537;-61
2023/01/16 17:00:45;;;;;;;16.57;8.60;;;;;;;;;;4934574;29;20772;-62
2023/01/16 17:03:12;;;;;;;16.50;8.83;;;;;;;;;;4934167;29;20461;-62
2023/01/16 17:05:40;;;;;;;18.03;9.30;;;;;;;;;;4932983;29;20506;-62
2023/01/16 17:08:10;;;;;;;14.93;8.77;;;;;;;;;;4933806;29;20442;-62
2023/01/16 17:10:37;;;;;;;17.13;9.57;;;;;;;;;;4932618;29;21012;-62
2023/01/16 17:13:04;;;;;;;17.37;9.63;;;;;;;;;;4933928;29;20533;-62
2023/01/16 17:15:30;;;;;;;17.80;10.00;;;;;;;;;;4933788;29;20444;-62
2023/01/16 17:17:57;;;;;;;16.03;9.10;;;;;;;;;;4933874;29;20486;-61
2023/01/16 17:20:24;;;;;;;17.90;8.73;;;;;;;;;;4934174;29;20542;-62
2023/01/16 17:22:52;;;;;;;17.70;9.83;;;;;;;;;;4933556;29;20438;-61
2023/01/16 17:27:47;;;;;;;19.23;9.70;;;;;;;;;;4933500;29;20574;-61
2023/01/16 17:30:31;;;;;;;19.47;9.57;;;;;;;;;;4933985;29;20423;-62
2023/01/16 17:33:09;;;;;;;20.70;9.43;;;;;;;;;;4933950;29;20481;-61
2023/01/16 17:35:39;;;;;;;18.80;10.37;;;;;;;;;;4932975;29;20436;-62